GHFCT EGSS-EGLF
Flight info
| Callsign | GHFCT |
|---|---|
| Flight time | 0h 46m |
| Altitude | 6000 |
| Route | NUGBO DCT SILVA DCT CPT |
| Aircraft | DA42/L-SBDGRY/S |
Departure
| Time | 2026-05-06 15:22 |
|---|---|
| Airport | London Stansted Airport (EGSS) |
Arrival
| Time | 2026-05-06 16:08 |
|---|---|
| Airport | Farnborough Airport (EGLF) |
| Time | Latitude | Longitude | Altitude | Speed | Heading |
|---|---|---|---|---|---|
| 2026-05-06 15:03 | 51.88354 | 0.22726 | 334 ft | 0 kts | 217° |
| 2026-05-06 15:17 | 51.88342 | 0.22731 | 334 ft | 6 kts | 101° |
| 2026-05-06 15:18 | 51.88365 | 0.22799 | 334 ft | 7 kts | 58° |
| 2026-05-06 15:18 | 51.88385 | 0.22867 | 336 ft | 7 kts | 71° |
| 2026-05-06 15:18 | 51.88398 | 0.22941 | 336 ft | 7 kts | 79° |
| 2026-05-06 15:18 | 51.88385 | 0.23031 | 334 ft | 7 kts | 113° |
| 2026-05-06 15:19 | 51.88378 | 0.23056 | 333 ft | 0 kts | 119° |
| 2026-05-06 15:20 | 51.88358 | 0.23146 | 334 ft | 16 kts | 100° |
| 2026-05-06 15:20 | 51.88364 | 0.23270 | 334 ft | 9 kts | 53° |
| 2026-05-06 15:20 | 51.88380 | 0.23299 | 332 ft | 0 kts | 46° |
| 2026-05-06 15:21 | 51.88391 | 0.23316 | 337 ft | 12 kts | 43° |
| 2026-05-06 15:21 | 51.88608 | 0.23644 | 335 ft | 68 kts | 44° |
| 2026-05-06 15:22 | 51.88967 | 0.24239 | 548 ft | 76 kts | 44° |
| 2026-05-06 15:22 | 51.89330 | 0.24896 | 858 ft | 82 kts | 44° |
| 2026-05-06 15:22 | 51.89709 | 0.25534 | 1265 ft | 76 kts | 40° |
| 2026-05-06 15:22 | 51.90091 | 0.26180 | 1560 ft | 82 kts | 38° |
| 2026-05-06 15:23 | 51.90486 | 0.26816 | 1879 ft | 80 kts | 35° |
| 2026-05-06 15:23 | 51.90916 | 0.27398 | 2189 ft | 79 kts | 31° |
| 2026-05-06 15:23 | 51.91356 | 0.27931 | 2560 ft | 77 kts | 28° |
| 2026-05-06 15:23 | 51.91784 | 0.28506 | 2847 ft | 83 kts | 35° |
| 2026-05-06 15:24 | 51.92260 | 0.29194 | 2975 ft | 102 kts | 34° |
| 2026-05-06 15:24 | 51.92863 | 0.29746 | 3270 ft | 98 kts | 18° |
| 2026-05-06 15:24 | 51.93531 | 0.30096 | 3528 ft | 100 kts | 13° |
| 2026-05-06 15:24 | 51.94209 | 0.30275 | 3809 ft | 103 kts | 5° |
| 2026-05-06 15:25 | 51.94966 | 0.30332 | 4033 ft | 108 kts | 358° |
| 2026-05-06 15:25 | 51.95703 | 0.30176 | 4286 ft | 112 kts | 351° |
| 2026-05-06 15:25 | 51.96477 | 0.29856 | 4564 ft | 116 kts | 342° |
| 2026-05-06 15:25 | 51.97224 | 0.29242 | 4785 ft | 125 kts | 328° |
| 2026-05-06 15:26 | 51.97878 | 0.28246 | 4987 ft | 131 kts | 311° |
| 2026-05-06 15:26 | 51.98376 | 0.26969 | 5151 ft | 137 kts | 297° |
| 2026-05-06 15:26 | 51.98649 | 0.25517 | 5420 ft | 136 kts | 284° |
| 2026-05-06 15:26 | 51.98773 | 0.23927 | 5499 ft | 147 kts | 270° |
| 2026-05-06 15:27 | 51.98637 | 0.22302 | 5728 ft | 145 kts | 258° |
| 2026-05-06 15:27 | 51.98380 | 0.20680 | 5808 ft | 153 kts | 256° |
| 2026-05-06 15:27 | 51.98087 | 0.19063 | 6068 ft | 147 kts | 249° |
| 2026-05-06 15:27 | 51.97766 | 0.17416 | 5994 ft | 156 kts | 258° |
| 2026-05-06 15:28 | 51.97591 | 0.15719 | 6049 ft | 155 kts | 265° |
| 2026-05-06 15:28 | 51.97549 | 0.13939 | 6038 ft | 157 kts | 271° |
| 2026-05-06 15:28 | 51.97633 | 0.12230 | 6172 ft | 151 kts | 279° |
| 2026-05-06 15:28 | 51.97859 | 0.10533 | 6180 ft | 153 kts | 286° |
| 2026-05-06 15:29 | 51.98146 | 0.08875 | 6185 ft | 155 kts | 289° |
| 2026-05-06 15:29 | 51.98505 | 0.07150 | 6017 ft | 165 kts | 290° |
| 2026-05-06 15:29 | 51.98819 | 0.05367 | 5996 ft | 162 kts | 279° |
| 2026-05-06 15:29 | 51.98679 | 0.03608 | 5990 ft | 162 kts | 253° |
| 2026-05-06 15:30 | 51.98298 | 0.01893 | 6012 ft | 157 kts | 252° |
| 2026-05-06 15:30 | 51.98069 | 0.00184 | 6020 ft | 156 kts | 261° |
| 2026-05-06 15:30 | 51.97878 | -0.01571 | 6009 ft | 156 kts | 260° |
| 2026-05-06 15:30 | 51.97688 | -0.03319 | 5978 ft | 158 kts | 261° |
| 2026-05-06 15:31 | 51.97500 | -0.05056 | 6026 ft | 155 kts | 260° |
| 2026-05-06 15:31 | 51.97257 | -0.06783 | 6009 ft | 157 kts | 256° |
| 2026-05-06 15:31 | 51.96995 | -0.08511 | 5976 ft | 159 kts | 258° |
| 2026-05-06 15:32 | 51.96548 | -0.11965 | 5989 ft | 156 kts | 259° |
| 2026-05-06 15:32 | 51.96335 | -0.13670 | 6007 ft | 155 kts | 259° |
| 2026-05-06 15:32 | 51.96099 | -0.15389 | 5985 ft | 156 kts | 258° |
| 2026-05-06 15:32 | 51.95880 | -0.17095 | 6015 ft | 155 kts | 260° |
| 2026-05-06 15:33 | 51.95665 | -0.18817 | 5990 ft | 156 kts | 258° |
| 2026-05-06 15:33 | 51.95423 | -0.20520 | 6005 ft | 155 kts | 258° |
| 2026-05-06 15:33 | 51.95201 | -0.22252 | 6007 ft | 154 kts | 261° |
| 2026-05-06 15:33 | 51.95026 | -0.23972 | 5972 ft | 156 kts | 263° |
| 2026-05-06 15:34 | 51.94842 | -0.25675 | 6059 ft | 151 kts | 259° |
| 2026-05-06 15:34 | 51.94602 | -0.27346 | 6007 ft | 155 kts | 257° |
| 2026-05-06 15:34 | 51.94426 | -0.28472 | 6006 ft | 154 kts | 256° |
| 2026-05-06 15:34 | 51.94166 | -0.30151 | 6028 ft | 153 kts | 257° |
| 2026-05-06 15:35 | 51.93910 | -0.31846 | 5969 ft | 156 kts | 259° |
| 2026-05-06 15:35 | 51.93699 | -0.33542 | 6021 ft | 153 kts | 260° |
| 2026-05-06 15:35 | 51.93495 | -0.35262 | 5990 ft | 155 kts | 261° |
| 2026-05-06 15:35 | 51.93291 | -0.36962 | 5993 ft | 155 kts | 259° |
| 2026-05-06 15:36 | 51.93064 | -0.38668 | 5964 ft | 155 kts | 258° |
| 2026-05-06 15:36 | 51.92814 | -0.40350 | 5978 ft | 153 kts | 257° |
| 2026-05-06 15:36 | 51.92563 | -0.42028 | 5961 ft | 154 kts | 257° |
| 2026-05-06 15:36 | 51.92269 | -0.43704 | 5915 ft | 155 kts | 256° |
| 2026-05-06 15:37 | 51.92010 | -0.45354 | 6013 ft | 149 kts | 259° |
| 2026-05-06 15:37 | 51.91775 | -0.47007 | 5995 ft | 151 kts | 260° |
| 2026-05-06 15:37 | 51.91762 | -0.48717 | 5940 ft | 153 kts | 271° |
| 2026-05-06 15:37 | 51.91628 | -0.50394 | 6034 ft | 149 kts | 259° |
| 2026-05-06 15:38 | 51.91359 | -0.52031 | 5996 ft | 153 kts | 255° |
| 2026-05-06 15:38 | 51.90996 | -0.53647 | 5993 ft | 153 kts | 243° |
| 2026-05-06 15:38 | 51.90301 | -0.54961 | 5901 ft | 158 kts | 217° |
| 2026-05-06 15:38 | 51.89364 | -0.55890 | 5785 ft | 158 kts | 211° |
| 2026-05-06 15:39 | 51.88393 | -0.56798 | 5596 ft | 167 kts | 210° |
| 2026-05-06 15:39 | 51.87371 | -0.57699 | 5502 ft | 167 kts | 209° |
| 2026-05-06 15:39 | 51.86362 | -0.58587 | 5360 ft | 168 kts | 210° |
| 2026-05-06 15:39 | 51.85340 | -0.59473 | 5283 ft | 165 kts | 209° |
| 2026-05-06 15:40 | 51.84343 | -0.60337 | 5164 ft | 162 kts | 208° |
| 2026-05-06 15:40 | 51.83329 | -0.61177 | 4964 ft | 163 kts | 207° |
| 2026-05-06 15:40 | 51.82325 | -0.61970 | 4877 ft | 158 kts | 207° |
| 2026-05-06 15:40 | 51.81341 | -0.62784 | 4694 ft | 160 kts | 208° |
| 2026-05-06 15:41 | 51.80321 | -0.63544 | 4509 ft | 162 kts | 202° |
| 2026-05-06 15:41 | 51.79240 | -0.64039 | 4367 ft | 162 kts | 195° |
| 2026-05-06 15:41 | 51.78265 | -0.64872 | 4312 ft | 155 kts | 224° |
| 2026-05-06 15:41 | 51.77634 | -0.66206 | 4359 ft | 143 kts | 247° |
| 2026-05-06 15:42 | 51.77375 | -0.67674 | 4445 ft | 133 kts | 271° |
| 2026-05-06 15:42 | 51.77484 | -0.69099 | 4531 ft | 128 kts | 292° |
| 2026-05-06 15:42 | 51.77854 | -0.70369 | 4609 ft | 127 kts | 303° |
| 2026-05-06 15:42 | 51.78078 | -0.71763 | 4793 ft | 128 kts | 284° |
| 2026-05-06 15:43 | 51.78330 | -0.73106 | 4998 ft | 123 kts | 295° |
| 2026-05-06 15:43 | 51.78631 | -0.74380 | 5200 ft | 120 kts | 295° |
| 2026-05-06 15:43 | 51.78929 | -0.75619 | 5401 ft | 118 kts | 295° |
| 2026-05-06 15:43 | 51.79232 | -0.76872 | 5611 ft | 122 kts | 296° |
| 2026-05-06 15:44 | 51.79681 | -0.78026 | 5823 ft | 122 kts | 316° |
| 2026-05-06 15:44 | 51.80291 | -0.79004 | 5989 ft | 129 kts | 319° |
| 2026-05-06 15:44 | 51.80979 | -0.80059 | 5981 ft | 140 kts | 320° |
| 2026-05-06 15:44 | 51.81694 | -0.81153 | 5981 ft | 142 kts | 320° |
| 2026-05-06 15:45 | 51.82420 | -0.82262 | 5983 ft | 144 kts | 320° |
| 2026-05-06 15:45 | 51.83155 | -0.83371 | 5984 ft | 144 kts | 320° |
| 2026-05-06 15:45 | 51.83891 | -0.84474 | 5983 ft | 144 kts | 320° |
| 2026-05-06 15:45 | 51.84669 | -0.85480 | 5991 ft | 142 kts | 327° |
| 2026-05-06 15:46 | 51.85482 | -0.86406 | 5990 ft | 143 kts | 328° |
| 2026-05-06 15:46 | 51.86220 | -0.87489 | 5973 ft | 148 kts | 303° |
| 2026-05-06 15:46 | 51.86369 | -0.89138 | 5988 ft | 154 kts | 266° |
| 2026-05-06 15:46 | 51.86141 | -0.90830 | 5993 ft | 154 kts | 259° |
| 2026-05-06 15:47 | 51.85880 | -0.92510 | 5992 ft | 154 kts | 261° |
| 2026-05-06 15:47 | 51.85636 | -0.94195 | 5993 ft | 154 kts | 261° |
| 2026-05-06 15:47 | 51.85401 | -0.95883 | 5991 ft | 153 kts | 262° |
| 2026-05-06 15:47 | 51.85169 | -0.97567 | 5990 ft | 153 kts | 262° |
| 2026-05-06 15:48 | 51.84891 | -0.99231 | 5986 ft | 156 kts | 250° |
| 2026-05-06 15:48 | 51.84238 | -1.00620 | 5985 ft | 161 kts | 223° |
| 2026-05-06 15:48 | 51.83244 | -1.01468 | 5989 ft | 163 kts | 203° |
| 2026-05-06 15:48 | 51.82185 | -1.02109 | 5987 ft | 163 kts | 202° |
| 2026-05-06 15:49 | 51.81120 | -1.02747 | 5988 ft | 164 kts | 202° |
| 2026-05-06 15:49 | 51.80057 | -1.03391 | 5991 ft | 164 kts | 202° |
| 2026-05-06 15:49 | 51.78989 | -1.04037 | 5988 ft | 164 kts | 202° |
| 2026-05-06 15:49 | 51.77925 | -1.04680 | 5988 ft | 163 kts | 203° |
| 2026-05-06 15:50 | 51.76864 | -1.05321 | 5984 ft | 162 kts | 203° |
| 2026-05-06 15:50 | 51.75807 | -1.05958 | 5987 ft | 163 kts | 203° |
| 2026-05-06 15:50 | 51.74730 | -1.06608 | 5989 ft | 167 kts | 202° |
| 2026-05-06 15:50 | 51.73629 | -1.07273 | 5990 ft | 171 kts | 203° |
| 2026-05-06 15:51 | 51.72508 | -1.07952 | 5990 ft | 173 kts | 202° |
| 2026-05-06 15:51 | 51.71376 | -1.08634 | 5990 ft | 174 kts | 203° |
| 2026-05-06 15:51 | 51.70242 | -1.09322 | 5988 ft | 174 kts | 203° |
| 2026-05-06 15:51 | 51.69106 | -1.10005 | 5987 ft | 174 kts | 202° |
| 2026-05-06 15:52 | 51.67974 | -1.10685 | 5990 ft | 174 kts | 202° |
| 2026-05-06 15:52 | 51.66842 | -1.11365 | 5988 ft | 174 kts | 203° |
| 2026-05-06 15:52 | 51.65708 | -1.12048 | 5989 ft | 174 kts | 203° |
| 2026-05-06 15:52 | 51.64577 | -1.12729 | 5988 ft | 174 kts | 203° |
| 2026-05-06 15:53 | 51.63446 | -1.13410 | 5985 ft | 173 kts | 203° |
| 2026-05-06 15:53 | 51.62317 | -1.14089 | 5987 ft | 173 kts | 203° |
| 2026-05-06 15:53 | 51.61188 | -1.14767 | 5985 ft | 173 kts | 203° |
| 2026-05-06 15:53 | 51.60065 | -1.15464 | 5989 ft | 173 kts | 205° |
| 2026-05-06 15:54 | 51.58953 | -1.16202 | 5994 ft | 173 kts | 206° |
| 2026-05-06 15:54 | 51.57852 | -1.16979 | 5991 ft | 173 kts | 207° |
| 2026-05-06 15:54 | 51.56736 | -1.17735 | 5990 ft | 174 kts | 204° |
| 2026-05-06 15:54 | 51.55601 | -1.18406 | 5992 ft | 175 kts | 202° |
| 2026-05-06 15:55 | 51.54561 | -1.18981 | 5991 ft | 175 kts | 201° |
| 2026-05-06 15:55 | 51.53432 | -1.19606 | 5989 ft | 174 kts | 201° |
| 2026-05-06 15:55 | 51.52294 | -1.20235 | 5990 ft | 172 kts | 201° |
| 2026-05-06 15:55 | 51.51155 | -1.20863 | 5985 ft | 173 kts | 201° |
| 2026-05-06 15:56 | 51.50015 | -1.21472 | 5985 ft | 174 kts | 196° |
| 2026-05-06 15:56 | 51.48812 | -1.21522 | 5985 ft | 175 kts | 169° |
| 2026-05-06 15:56 | 51.47682 | -1.20812 | 5990 ft | 175 kts | 153° |
| 2026-05-06 15:56 | 51.46587 | -1.19952 | 5990 ft | 175 kts | 153° |
| 2026-05-06 15:57 | 51.45492 | -1.19088 | 5991 ft | 176 kts | 153° |
| 2026-05-06 15:57 | 51.44393 | -1.18220 | 5990 ft | 176 kts | 153° |
| 2026-05-06 15:57 | 51.43296 | -1.17353 | 5989 ft | 176 kts | 153° |
| 2026-05-06 15:57 | 51.42195 | -1.16483 | 5989 ft | 177 kts | 153° |
| 2026-05-06 15:58 | 51.41108 | -1.15619 | 5988 ft | 177 kts | 153° |
| 2026-05-06 15:58 | 51.40006 | -1.14739 | 5983 ft | 177 kts | 153° |
| 2026-05-06 15:58 | 51.38908 | -1.13861 | 5989 ft | 176 kts | 153° |
| 2026-05-06 15:58 | 51.37814 | -1.12986 | 5988 ft | 176 kts | 153° |
| 2026-05-06 15:59 | 51.36718 | -1.12110 | 5988 ft | 176 kts | 153° |
| 2026-05-06 15:59 | 51.35620 | -1.11231 | 5988 ft | 176 kts | 153° |
| 2026-05-06 15:59 | 51.34522 | -1.10353 | 5989 ft | 177 kts | 153° |
| 2026-05-06 15:59 | 51.33439 | -1.09423 | 5985 ft | 177 kts | 145° |
| 2026-05-06 16:00 | 51.32574 | -1.08044 | 5990 ft | 176 kts | 127° |
| 2026-05-06 16:00 | 51.31894 | -1.06433 | 5989 ft | 174 kts | 112° |
| 2026-05-06 16:00 | 51.31499 | -1.04627 | 5991 ft | 171 kts | 104° |
| 2026-05-06 16:00 | 51.31239 | -1.02785 | 5982 ft | 169 kts | 89° |
| 2026-05-06 16:01 | 51.31244 | -1.00916 | 5992 ft | 168 kts | 85° |
| 2026-05-06 16:01 | 51.31210 | -0.99052 | 5994 ft | 169 kts | 89° |
| 2026-05-06 16:01 | 51.31133 | -0.97111 | 5728 ft | 179 kts | 90° |
| 2026-05-06 16:01 | 51.30946 | -0.95117 | 5476 ft | 184 kts | 100° |
| 2026-05-06 16:02 | 51.30287 | -0.93395 | 5203 ft | 187 kts | 142° |
| 2026-05-06 16:02 | 51.29085 | -0.92677 | 4967 ft | 184 kts | 166° |
| 2026-05-06 16:02 | 51.27844 | -0.92185 | 4709 ft | 183 kts | 165° |
| 2026-05-06 16:02 | 51.26619 | -0.91672 | 4441 ft | 181 kts | 164° |
| 2026-05-06 16:03 | 51.25412 | -0.91148 | 4184 ft | 178 kts | 163° |
| 2026-05-06 16:03 | 51.24233 | -0.90625 | 3993 ft | 169 kts | 163° |
| 2026-05-06 16:03 | 51.23359 | -0.89784 | 3939 ft | 128 kts | 110° |
| 2026-05-06 16:03 | 51.23520 | -0.88830 | 3858 ft | 87 kts | 13° |
| 2026-05-06 16:04 | 51.24045 | -0.89322 | 3523 ft | 105 kts | 300° |
| 2026-05-06 16:04 | 51.23955 | -0.90450 | 3354 ft | 107 kts | 236° |
| 2026-05-06 16:04 | 51.23309 | -0.90851 | 3227 ft | 97 kts | 168° |
| 2026-05-06 16:04 | 51.22889 | -0.90234 | 3052 ft | 79 kts | 80° |
| 2026-05-06 16:05 | 51.23098 | -0.89414 | 2885 ft | 86 kts | 52° |
| 2026-05-06 16:05 | 51.23440 | -0.88590 | 2788 ft | 89 kts | 49° |
| 2026-05-06 16:05 | 51.23787 | -0.87856 | 2561 ft | 76 kts | 46° |
| 2026-05-06 16:05 | 51.24083 | -0.87196 | 2320 ft | 71 kts | 48° |
| 2026-05-06 16:06 | 51.24375 | -0.86592 | 2070 ft | 69 kts | 47° |
| 2026-05-06 16:06 | 51.24641 | -0.85968 | 1888 ft | 69 kts | 48° |
| 2026-05-06 16:06 | 51.24956 | -0.85265 | 1761 ft | 88 kts | 51° |
| 2026-05-06 16:06 | 51.25300 | -0.84394 | 1604 ft | 96 kts | 53° |
| 2026-05-06 16:07 | 51.25653 | -0.83453 | 1483 ft | 101 kts | 55° |
| 2026-05-06 16:07 | 51.25977 | -0.82463 | 1266 ft | 101 kts | 58° |
| 2026-05-06 16:07 | 51.26294 | -0.81505 | 1051 ft | 93 kts | 56° |
| 2026-05-06 16:07 | 51.26581 | -0.80638 | 774 ft | 84 kts | 57° |
| 2026-05-06 16:08 | 51.26837 | -0.79867 | 529 ft | 75 kts | 57° |
| 2026-05-06 16:08 | 51.27075 | -0.79151 | 358 ft | 68 kts | 54° |
| 2026-05-06 16:08 | 51.27284 | -0.78520 | 237 ft | 61 kts | 52° |
| 2026-05-06 16:08 | 51.27459 | -0.78056 | 219 ft | 36 kts | 62° |
| 2026-05-06 16:09 | 51.27555 | -0.77753 | 223 ft | 25 kts | 64° |
| 2026-05-06 16:09 | 51.27617 | -0.77579 | 225 ft | 13 kts | 66° |
| 2026-05-06 16:09 | 51.27661 | -0.77445 | 224 ft | 11 kts | 27° |
| 2026-05-06 16:09 | 51.27708 | -0.77440 | 223 ft | 7 kts | 353° |
| 2026-05-06 16:10 | 51.27765 | -0.77452 | 221 ft | 10 kts | 351° |
| 2026-05-06 16:10 | 51.27844 | -0.77465 | 219 ft | 13 kts | 354° |
| 2026-05-06 16:10 | 51.27943 | -0.77479 | 216 ft | 15 kts | 353° |
| 2026-05-06 16:10 | 51.28054 | -0.77496 | 214 ft | 15 kts | 355° |
| 2026-05-06 16:11 | 51.28148 | -0.77486 | 213 ft | 13 kts | 4° |
| 2026-05-06 16:11 | 51.28204 | -0.77534 | 213 ft | 9 kts | 330° |
| 2026-05-06 16:11 | 51.28273 | -0.77543 | 215 ft | 9 kts | 356° |
| 2026-05-06 16:11 | 51.28287 | -0.77554 | 213 ft | 1 kts | 282° |
| 2026-05-06 16:12 | 51.28281 | -0.77563 | 213 ft | 0 kts | 187° |